메인 페이지
METAR-TAF:

METAR-TAF

공항 :

츠바르트노츠 국제공항

예레반, 아르메니아

위도: 40-08-50N, 경도: 044-23-45E, 고도: 865m

현재 날씨관측

예보는 44분 전, 15:30시(UTC)에 발표되었습니다.
동북동1kt
온도 17°C
습도 42%
기압 1023 hPa
시정 10km 이상

METAR: UDYZ 211530Z 06001KT 9999 NSC 17/04 Q1023 R09/010070 NOSIG

시각: 20:14 (16:14 UTC)

예보

예보는 5 시간 10분 전, 11:04시(UTC)에 발표되었습니다.
예보 대상 시간: 21일 12시부터 22일 12시까지 (UTC)
북북동6kt
시정 10km 이상
1500m 미만 상공 구름 및 적란운 없음
일시적
21일 12시부터 21일 21시까지 (UTC)
여러 방향의 바람 20kt, 순간 최대 풍속 30kt
고도 4000ft 상공 구름 조금, 적란운.

TAF: UDYZ 211104Z 2112/2212 03006KT CAVOK TEMPO 2112/2121 VRB20G30KT FEW040CB

4,000개 이상의 공항 관측 자료 및 예보 (METAR 및 TAF 보고).

지도상에서 검색 가능한 기상관측소가 노란 점과 빨간 점으로 표시되어 있습니다.

기상관측소 명을 보려면 표시 위로 마우스를 이동하세요.

날씨 관측과 예보를 보려면 클릭하세요.

지도 변경 : 확대하려면 엑스 표시가 있는 녹색 버튼, 축소하려면 빼기 표시가 있는 녹색 버튼, 다음 페이지의 지도를 보려면 녹색 화살표를 클릭하세요.


METAR-TAF: